Time;durP1;ratioP1;P1;durP2;ratioP2;P2;SDS_P1;SDS_P2;PMS_P1;PMS_P2;Temp;Humidity;BMP_temperature;BMP_pressure;BME280_temperature;BME280_humidity;BME280_pressure;Samples;Min_cycle;Max_cycle;Signal;HPM_P1;HPM_P2
2021/08/03 00:00:25;;;;;;;0.55;0.50;;;;;;;13.59;90.96;99203.81;2011676;80;25655;-74
2021/08/03 00:03:29;;;;;;;2.76;0.60;;;;;;;13.60;91.44;99197.72;2013637;80;20208;-73
2021/08/03 00:06:35;;;;;;;4.70;0.70;;;;;;;13.68;91.61;99210.63;2012697;80;20629;-73
2021/08/03 00:09:40;;;;;;;5.99;0.80;;;;;;;13.69;91.94;99202.78;2012110;80;20653;-73
2021/08/03 00:12:53;;;;;;;1.48;0.90;;;;;;;13.72;92.10;99210.53;2011996;80;20725;-74
2021/08/03 00:16:03;;;;;;;1.60;1.00;;;;;;;13.75;92.43;99197.41;2012748;80;20201;-73
2021/08/03 00:19:06;;;;;;;3.80;0.80;;;;;;;13.83;92.70;99205.09;2017575;80;20885;-73
2021/08/03 00:22:09;;;;;;;1.65;0.60;;;;;;;13.87;92.80;99196.31;2017579;80;20271;-73
2021/08/03 00:25:12;;;;;;;3.04;0.64;;;;;;;13.95;92.62;99198.75;2017632;80;20231;-72
2021/08/03 00:28:16;;;;;;;1.39;0.69;;;;;;;14.02;92.42;99182.09;2017525;80;20187;-74
2021/08/03 00:31:21;;;;;;;5.09;0.90;;;;;;;14.08;92.40;99177.56;2018623;77;21000;-72
2021/08/03 00:34:24;;;;;;;1.55;0.80;;;;;;;14.14;92.41;99171.34;2023423;80;20186;-73
2021/08/03 00:37:26;;;;;;;1.27;1.10;;;;;;;14.18;92.44;99157.31;2022632;80;20190;-72
2021/08/03 00:40:32;;;;;;;8.85;1.92;;;;;;;14.23;92.49;99155.50;2022719;80;20199;-72
2021/08/03 00:43:35;;;;;;;3.28;1.00;;;;;;;14.28;91.97;99150.16;2026530;80;20212;-72
2021/08/03 00:46:38;;;;;;;2.14;1.02;;;;;;;14.33;91.97;99140.44;2021534;77;20220;-73
2021/08/03 00:49:41;;;;;;;3.09;0.84;;;;;;;14.37;92.15;99144.72;2022590;80;20689;-73
2021/08/03 00:52:44;;;;;;;1.29;0.74;;;;;;;14.36;92.26;99150.81;2022534;80;20304;-72
2021/08/03 00:55:46;;;;;;;4.85;1.00;;;;;;;14.29;92.13;99139.66;2022901;80;20240;-73
2021/08/03 00:58:49;;;;;;;1.04;0.76;;;;;;;14.31;91.90;99140.47;2022105;80;20187;-72
2021/08/03 01:01:53;;;;;;;5.00;1.52;;;;;;;14.36;91.96;99145.59;2019006;77;20776;-72
2021/08/03 01:04:56;;;;;;;2.54;1.08;;;;;;;14.32;91.98;99142.19;2017089;80;20191;-72
2021/08/03 01:08:10;;;;;;;1.11;0.93;;;;;;;14.27;91.98;99135.38;2017161;80;20253;-72
2021/08/03 01:11:21;;;;;;;1.10;0.90;;;;;;;14.25;92.47;99139.78;2016934;80;20225;-73
2021/08/03 01:14:41;;;;;;;4.41;0.90;;;;;;;14.30;92.56;99148.34;2017247;80;20555;-72
2021/08/03 01:17:47;;;;;;;2.55;0.91;;;;;;;14.28;92.51;99171.03;2020442;78;20349;-73
2021/08/03 01:21:02;;;;;;;2.70;0.98;;;;;;;14.30;92.59;99154.44;2022227;80;20193;-73
2021/08/03 01:24:26;;;;;;;1.76;1.05;;;;;;;14.35;92.59;99142.13;2022544;80;20201;-72
2021/08/03 01:27:44;;;;;;;2.05;1.00;;;;;;;14.40;92.63;99132.44;2021889;80;20274;-73
2021/08/03 01:31:16;;;;;;;2.91;1.00;;;;;;;14.44;92.41;99131.50;2022576;80;20201;-73
2021/08/03 01:34:21;;;;;;;1.33;0.93;;;;;;;14.47;92.34;99133.19;2020278;77;20449;-72
2021/08/03 01:37:27;;;;;;;2.39;0.99;;;;;;;14.50;92.03;99133.97;2021830;80;20695;-73
2021/08/03 01:40:31;;;;;;;4.94;0.93;;;;;;;14.54;92.02;99129.50;2023546;80;20183;-73
2021/08/03 01:43:35;;;;;;;3.67;0.82;;;;;;;14.56;92.02;99127.75;2023739;80;20216;-73
2021/08/03 01:46:39;;;;;;;2.10;0.99;;;;;;;14.58;91.76;99127.72;2019142;78;20994;-73
2021/08/03 01:49:43;;;;;;;1.64;0.90;;;;;;;14.59;91.57;99119.81;2018103;80;20637;-73
2021/08/03 01:52:46;;;;;;;2.30;0.95;;;;;;;14.60;91.62;99121.53;2018076;80;20184;-72
2021/08/03 01:55:50;;;;;;;2.78;0.93;;;;;;;14.58;91.64;99122.47;2018557;80;20744;-72
2021/08/03 01:58:54;;;;;;;5.60;0.95;;;;;;;14.55;91.50;99120.81;2017667;80;20164;-72
2021/08/03 02:01:58;;;;;;;2.17;0.80;;;;;;;14.52;91.21;99113.00;2018138;77;20835;-73
2021/08/03 02:05:02;;;;;;;5.09;0.84;;;;;;;14.48;91.09;99099.19;2019552;80;20172;-72
2021/08/03 02:08:06;;;;;;;1.00;0.74;;;;;;;14.44;90.82;99100.16;2019304;80;20714;-73
2021/08/03 02:11:10;;;;;;;7.09;0.73;;;;;;;14.41;90.75;99094.97;2020184;80;20217;-73
2021/08/03 02:14:13;;;;;;;3.19;0.75;;;;;;;14.39;90.72;99095.91;2019543;80;20592;-72
2021/08/03 02:17:21;;;;;;;6.22;1.00;;;;;;;14.31;90.54;99090.00;2022979;78;27150;-72
2021/08/03 02:20:24;;;;;;;2.60;0.80;;;;;;;14.23;90.72;99091.97;2025071;80;20191;-73
2021/08/03 02:23:26;;;;;;;3.28;0.90;;;;;;;14.19;90.71;99089.44;2024629;80;20214;-73
2021/08/03 02:26:29;;;;;;;3.75;1.50;;;;;;;14.18;90.81;99084.22;2024448;80;20287;-73
2021/08/03 02:29:36;;;;;;;3.65;0.75;;;;;;;14.16;90.93;99081.63;2023908;80;20234;-72
2021/08/03 02:32:46;;;;;;;3.15;0.63;;;;;;;14.16;91.00;99075.56;2018769;77;20215;-74
2021/08/03 02:35:57;;;;;;;2.20;0.75;;;;;;;14.14;91.02;99079.97;2018911;80;20179;-73
2021/08/03 02:39:03;;;;;;;2.54;0.70;;;;;;;14.13;91.13;99068.66;2019757;80;20192;-73
2021/08/03 02:42:09;;;;;;;3.11;0.74;;;;;;;14.14;91.25;99070.38;2018748;80;20713;-73
2021/08/03 02:45:16;;;;;;;4.19;0.80;;;;;;;14.16;91.41;99067.72;2019086;80;20179;-73
2021/08/03 02:48:23;;;;;;;2.97;0.82;;;;;;;14.13;91.35;99070.41;2024092;78;24425;-75
2021/08/03 02:51:29;;;;;;;6.06;0.85;;;;;;;14.02;91.45;99070.69;2023802;80;21086;-73
2021/08/03 02:54:34;;;;;;;1.19;0.82;;;;;;;14.00;91.80;99077.66;2024367;80;20633;-73
2021/08/03 02:57:39;;;;;;;4.30;0.80;;;;;;;14.00;92.06;99079.41;2024128;80;20231;-73
2021/08/03 03:00:42;;;;;;;4.63;0.85;;;;;;;14.05;92.11;99080.19;2022181;77;24137;-73
2021/08/03 03:03:49;;;;;;;2.84;0.66;;;;;;;14.06;92.23;99076.69;2018169;80;20633;-73
2021/08/03 03:06:56;;;;;;;1.58;0.80;;;;;;;14.09;92.44;99082.69;2017293;80;20762;-74
2021/08/03 03:10:02;;;;;;;1.86;0.90;;;;;;;14.10;92.59;99078.31;2018290;80;20249;-73
2021/08/03 03:13:14;;;;;;;1.60;0.75;;;;;;;14.10;92.65;99083.53;2018441;80;20268;-73
2021/08/03 03:16:20;;;;;;;2.38;0.80;;;;;;;14.12;92.80;99072.16;2019210;77;20955;-73
2021/08/03 03:19:23;;;;;;;1.38;0.74;;;;;;;14.16;92.67;99070.34;2022910;80;20294;-73
2021/08/03 03:22:28;;;;;;;2.56;0.90;;;;;;;14.20;92.61;99066.78;2023026;80;20220;-73
2021/08/03 03:25:31;;;;;;;1.25;0.90;;;;;;;14.26;92.58;99066.63;2022756;80;20207;-73
2021/08/03 03:28:37;;;;;;;4.28;1.42;;;;;;;14.27;92.36;99065.72;2022955;80;20179;-73
2021/08/03 03:31:41;;;;;;;4.31;0.85;;;;;;;14.30;92.24;99063.03;2020005;78;20184;-72
2021/08/03 03:34:44;;;;;;;2.63;0.98;;;;;;;14.35;92.31;99061.16;2018526;80;20179;-73
2021/08/03 03:37:50;;;;;;;3.03;0.82;;;;;;;14.38;92.20;99063.72;2017908;80;20180;-73
2021/08/03 03:40:54;;;;;;;3.04;1.10;;;;;;;14.41;92.08;99076.69;2017774;80;20221;-73
2021/08/03 03:43:57;;;;;;;3.06;1.01;;;;;;;14.38;91.90;99065.47;2017965;80;20235;-73
2021/08/03 03:47:10;;;;;;;13.96;1.80;;;;;;;14.38;91.65;99065.47;2021850;78;20796;-73
2021/08/03 03:50:18;;;;;;;5.74;0.82;;;;;;;14.41;91.55;99063.63;2022608;80;20838;-73
2021/08/03 03:53:23;;;;;;;1.64;0.75;;;;;;;14.44;91.59;99067.94;2019090;80;20192;-72
2021/08/03 03:56:31;;;;;;;3.36;1.01;;;;;;;14.47;91.58;99060.03;2022350;80;20289;-73
2021/08/03 03:59:37;;;;;;;4.72;0.82;;;;;;;14.48;91.59;99073.06;2022978;80;20213;-72
2021/08/03 04:02:42;;;;;;;2.90;0.82;;;;;;;14.48;91.68;99072.19;2018419;80;22127;-72
2021/08/03 04:05:47;;;;;;;2.10;0.90;;;;;;;14.44;91.74;99075.78;2017156;80;20286;-73
2021/08/03 04:08:50;;;;;;;3.44;0.91;;;;;;;14.44;91.88;99086.25;2017630;80;20239;-73
2021/08/03 04:11:53;;;;;;;3.49;0.90;;;;;;;14.41;92.07;99075.84;2017764;80;20176;-73
2021/08/03 04:14:55;;;;;;;2.38;0.86;;;;;;;14.43;92.07;99087.09;2017610;80;20171;-72
2021/08/03 04:17:58;;;;;;;3.50;0.77;;;;;;;14.42;92.17;99088.84;2021891;77;23229;-73
2021/08/03 04:21:01;;;;;;;4.10;1.08;;;;;;;14.45;92.21;99086.19;2022587;80;20183;-73
2021/08/03 04:24:04;;;;;;;3.55;0.91;;;;;;;14.44;92.03;99086.25;2023398;80;20717;-72
2021/08/03 04:27:06;;;;;;;1.42;1.04;;;;;;;14.44;92.21;99083.63;2022791;80;20576;-73
2021/08/03 04:30:12;;;;;;;1.25;0.94;;;;;;;14.47;92.16;99080.94;2022085;80;20869;-73
2021/08/03 04:33:15;;;;;;;0.77;0.71;;;;;;;14.49;92.17;99084.34;2017239;77;22511;-73
2021/08/03 04:36:17;;;;;;;1.27;0.90;;;;;;;14.49;92.22;99081.75;2017211;80;20222;-73
2021/08/03 04:39:20;;;;;;;1.91;0.89;;;;;;;14.49;92.10;99073.91;2017744;80;20176;-72
2021/08/03 04:42:23;;;;;;;2.78;1.05;;;;;;;14.51;91.76;99070.34;2017153;80;20192;-73
2021/08/03 04:45:25;;;;;;;3.13;1.16;;;;;;;14.54;91.81;99071.16;2017658;78;23136;-73
2021/08/03 04:48:28;;;;;;;3.83;0.90;;;;;;;14.49;91.61;99072.16;2023283;80;20586;-73
2021/08/03 04:51:30;;;;;;;3.09;1.09;;;;;;;14.44;91.86;99078.41;2023017;80;20174;-73
2021/08/03 04:54:33;;;;;;;1.66;0.76;;;;;;;14.45;92.03;99078.34;2022857;80;20293;-73
2021/08/03 04:57:36;;;;;;;1.55;0.99;;;;;;;14.48;92.01;99078.28;2022933;80;20184;-73
2021/08/03 05:00:38;;;;;;;5.05;0.91;;;;;;;14.51;92.01;99072.97;2020413;78;21120;-73
2021/08/03 05:03:41;;;;;;;3.11;1.11;;;;;;;14.50;92.12;99083.47;2016866;80;20678;-73
2021/08/03 05:06:43;;;;;;;5.20;1.15;;;;;;;14.50;92.29;99086.94;2017336;80;20205;-75
2021/08/03 05:09:46;;;;;;;4.94;1.42;;;;;;;14.50;92.40;99088.69;2018056;80;20742;-74
2021/08/03 05:12:48;;;;;;;3.01;0.90;;;;;;;14.51;92.59;99088.66;2017535;80;20245;-75
2021/08/03 05:15:51;;;;;;;1.09;0.88;;;;;;;14.55;92.53;99080.75;2019389;80;21894;-76
2021/08/03 05:18:54;;;;;;;2.56;0.80;;;;;;;14.53;92.52;99086.00;2022947;80;20312;-75
2021/08/03 05:21:56;;;;;;;2.09;0.91;;;;;;;14.54;92.57;99081.63;2023244;80;20324;-74
2021/08/03 05:24:59;;;;;;;1.27;0.90;;;;;;;14.54;92.52;99084.22;2022965;80;20244;-75
2021/08/03 05:28:02;;;;;;;1.80;0.90;;;;;;;14.56;92.59;99082.47;2023105;80;20232;-75
2021/08/03 05:31:04;;;;;;;3.84;0.88;;;;;;;14.60;92.54;99081.50;2021433;77;20619;-76
2021/08/03 05:34:07;;;;;;;6.95;1.08;;;;;;;14.62;92.58;99074.47;2018107;80;20273;-75
2021/08/03 05:37:09;;;;;;;6.45;1.10;;;;;;;14.66;92.27;99070.88;2017939;80;21100;-74
2021/08/03 05:40:12;;;;;;;3.60;0.84;;;;;;;14.70;92.06;99062.91;2017908;80;20155;-74
2021/08/03 05:43:15;;;;;;;4.95;1.15;;;;;;;14.74;92.00;99076.75;2018660;80;20220;-74
2021/08/03 05:46:18;;;;;;;2.33;0.85;;;;;;;14.77;91.58;99074.06;2019744;80;20195;-73
2021/08/03 05:49:20;;;;;;;2.84;0.89;;;;;;;14.80;91.81;99076.59;2023674;80;20294;-74
2021/08/03 05:52:23;;;;;;;2.91;0.76;;;;;;;14.78;92.01;99086.25;2024195;80;20255;-75
2021/08/03 05:55:25;;;;;;;0.93;0.66;;;;;;;14.74;92.29;99100.28;2023266;80;20657;-74
2021/08/03 05:58:28;;;;;;;2.01;0.70;;;;;;;14.71;92.27;99102.97;2022926;80;20260;-74
2021/08/03 06:01:30;;;;;;;2.44;1.00;;;;;;;14.71;92.42;99114.25;2019292;80;20175;-74
2021/08/03 06:04:33;;;;;;;3.61;0.60;;;;;;;14.72;92.56;99113.41;2018408;80;20195;-76
2021/08/03 06:07:41;;;;;;;4.04;0.70;;;;;;;14.75;92.51;99118.53;2018061;80;20304;-75
2021/08/03 06:10:44;;;;;;;2.21;0.72;;;;;;;14.73;92.29;99117.72;2017737;80;20184;-74
2021/08/03 06:13:49;;;;;;;2.94;0.60;;;;;;;14.70;92.23;99125.63;2018070;80;20221;-75
2021/08/03 06:16:53;;;;;;;1.55;0.60;;;;;;;14.72;92.25;99120.34;2020661;80;22172;-74
2021/08/03 06:19:56;;;;;;;1.46;0.54;;;;;;;14.71;92.34;99116.03;2023439;80;20155;-75
2021/08/03 06:22:59;;;;;;;2.80;0.50;;;;;;;14.75;92.32;99115.06;2024096;80;20224;-75
2021/08/03 06:26:02;;;;;;;1.35;0.59;;;;;;;14.78;92.24;99115.00;2022740;80;20211;-74
2021/08/03 06:29:05;;;;;;;2.96;0.54;;;;;;;14.81;91.83;99102.69;2022512;80;20187;-73
2021/08/03 06:32:10;;;;;;;2.39;0.60;;;;;;;14.85;91.42;99097.38;2019476;77;20611;-74
2021/08/03 06:35:14;;;;;;;1.41;0.59;;;;;;;14.86;91.09;99099.09;2017318;80;20219;-74
2021/08/03 06:38:17;;;;;;;4.69;0.60;;;;;;;14.86;91.00;99093.84;2018672;80;20197;-74
2021/08/03 06:41:22;;;;;;;2.59;0.56;;;;;;;14.85;91.12;99097.38;2017130;80;20997;-74
2021/08/03 06:44:49;;;;;;;3.80;0.56;;;;;;;14.83;91.21;99110.50;2017875;80;20661;-73
2021/08/03 06:48:02;;;;;;;2.65;0.65;;;;;;;14.76;91.39;99120.25;2021560;78;54492;-71
2021/08/03 06:51:09;;;;;;;3.05;0.69;;;;;;;14.72;91.58;99122.97;2018552;80;20163;-71
2021/08/03 06:54:12;;;;;;;1.27;0.50;;;;;;;14.72;91.60;99104.66;2022167;80;20239;-71
2021/08/03 06:57:16;;;;;;;2.61;0.50;;;;;;;14.79;91.69;99090.56;2021570;80;20702;-73
2021/08/03 07:00:22;;;;;;;4.00;0.60;;;;;;;14.85;91.68;99077.31;2019522;78;23558;-73
2021/08/03 07:03:30;;;;;;;4.69;0.60;;;;;;;14.91;91.45;99074.56;2016756;80;20179;-73
2021/08/03 07:06:35;;;;;;;1.89;0.50;;;;;;;14.95;91.35;99081.41;2020563;80;20246;-74
2021/08/03 07:09:43;;;;;;;0.70;0.50;;;;;;;14.98;91.38;99097.00;2022644;80;20199;-73
2021/08/03 07:12:46;;;;;;;2.25;0.50;;;;;;;14.94;91.14;99097.16;2022533;80;20499;-72
2021/08/03 07:15:51;;;;;;;0.66;0.40;;;;;;;14.92;91.05;99105.03;2025315;77;20907;-73
2021/08/03 07:18:57;;;;;;;4.00;0.56;;;;;;;14.91;91.12;99098.09;2022963;80;20197;-73
2021/08/03 07:22:00;;;;;;;1.76;0.51;;;;;;;14.94;91.03;99094.53;2023229;80;20181;-74
2021/08/03 07:25:05;;;;;;;1.27;0.40;;;;;;;14.95;91.21;99099.72;2022754;80;20269;-74
2021/08/03 07:28:07;;;;;;;1.10;0.57;;;;;;;14.96;91.07;99095.34;2025356;80;20263;-75
2021/08/03 07:31:11;;;;;;;5.07;0.50;;;;;;;14.92;90.84;99088.50;2022566;77;23611;-74
2021/08/03 07:34:14;;;;;;;2.59;0.60;;;;;;;14.90;90.88;99085.91;2022701;80;20183;-73
2021/08/03 07:37:17;;;;;;;1.25;0.59;;;;;;;14.85;90.65;99092.16;2022035;80;20167;-73
2021/08/03 07:40:20;;;;;;;1.90;0.50;;;;;;;14.86;90.76;99065.97;2022068;80;20914;-72
2021/08/03 07:43:23;;;;;;;1.91;0.70;;;;;;;14.87;91.02;99056.38;2017902;80;20320;-73
2021/08/03 07:46:27;;;;;;;2.10;0.55;;;;;;;14.86;90.98;99057.25;2018500;77;27111;-73
2021/08/03 07:49:30;;;;;;;2.91;0.50;;;;;;;14.81;90.88;99073.09;2017240;80;20359;-73
2021/08/03 07:52:33;;;;;;;1.44;0.50;;;;;;;14.67;90.79;99090.88;2016696;80;20292;-73
2021/08/03 07:55:36;;;;;;;1.41;0.49;;;;;;;14.56;91.08;99077.25;2016915;80;20418;-73
2021/08/03 07:58:39;;;;;;;1.34;0.76;;;;;;;14.52;91.73;99089.50;2020383;80;20202;-74
2021/08/03 08:01:42;;;;;;;3.21;0.86;;;;;;;14.49;92.19;99090.44;2014780;77;133188;-72
2021/08/03 08:04:45;;;;;;;2.38;0.68;;;;;;;14.49;92.61;99100.03;2016489;80;20320;-72
2021/08/03 08:07:47;;;;;;;1.39;0.49;;;;;;;14.51;92.93;99108.69;2017449;80;20713;-72
2021/08/03 08:10:50;;;;;;;1.36;0.50;;;;;;;14.55;93.09;99112.09;2016819;80;20168;-75
2021/08/03 08:13:53;;;;;;;1.00;0.50;;;;;;;14.56;92.82;99121.66;2017780;80;20260;-73
2021/08/03 08:16:57;;;;;;;1.49;0.63;;;;;;;14.59;92.97;99126.81;2019572;77;20684;-73
2021/08/03 08:20:00;;;;;;;0.88;0.50;;;;;;;14.59;92.91;99112.00;2022324;80;20167;-74
2021/08/03 08:23:03;;;;;;;2.20;0.52;;;;;;;14.65;93.08;99084.81;2022098;80;20166;-74
2021/08/03 08:26:06;;;;;;;2.14;0.60;;;;;;;14.72;93.12;99108.16;2022195;80;20273;-74
2021/08/03 08:29:09;;;;;;;1.73;0.70;;;;;;;14.79;93.30;99093.19;2022599;80;20206;-74
2021/08/03 08:32:11;;;;;;;2.56;0.55;;;;;;;14.86;93.19;99075.56;2018628;77;21612;-74
2021/08/03 08:35:15;;;;;;;0.44;0.44;;;;;;;14.92;93.13;99065.81;2018474;80;21133;-76
2021/08/03 08:38:17;;;;;;;1.34;0.40;;;;;;;15.00;92.83;99065.59;2016867;80;20200;-75
2021/08/03 08:41:21;;;;;;;1.51;0.40;;;;;;;15.02;92.41;99071.63;2017101;80;20684;-73
2021/08/03 08:44:23;;;;;;;2.49;0.50;;;;;;;15.01;92.26;99075.16;2017932;80;20187;-75
2021/08/03 08:47:26;;;;;;;1.76;0.50;;;;;;;15.11;92.23;99077.47;2020476;77;21788;-72
2021/08/03 08:50:29;;;;;;;0.47;0.43;;;;;;;15.12;91.72;99083.56;2022913;80;20262;-75
2021/08/03 08:53:34;;;;;;;1.58;0.47;;;;;;;15.17;91.75;99093.91;2022451;80;20200;-73
2021/08/03 08:56:36;;;;;;;1.51;0.36;;;;;;;15.16;91.52;99116.56;2022122;80;20207;-73
2021/08/03 08:59:39;;;;;;;0.98;0.41;;;;;;;15.10;91.70;99135.91;2022524;80;20183;-73
2021/08/03 09:02:45;;;;;;;1.46;0.40;;;;;;;15.06;91.78;99134.25;2016781;77;20365;-77
2021/08/03 09:06:20;;;;;;;0.98;0.40;;;;;;;15.07;91.90;99116.81;2017520;80;20298;-77
2021/08/03 09:09:23;;;;;;;1.33;0.46;;;;;;;15.01;91.90;99104.78;2013301;80;20219;-78
2021/08/03 09:12:34;;;;;;;0.75;0.40;;;;;;;15.02;92.13;99092.56;2017746;80;20624;-77
2021/08/03 09:15:40;;;;;;;0.38;0.38;;;;;;;15.09;92.31;99083.66;2017851;77;22470;-78
2021/08/03 09:18:44;;;;;;;0.40;0.40;;;;;;;15.15;92.40;99070.41;2018390;80;20172;-77
2021/08/03 09:21:46;;;;;;;1.88;0.40;;;;;;;15.17;92.32;99068.59;2023293;80;20930;-77
2021/08/03 09:25:11;;;;;;;0.80;0.30;;;;;;;15.17;92.15;99068.59;2022338;80;20191;-78
2021/08/03 09:28:15;;;;;;;0.66;0.40;;;;;;;15.22;92.22;99074.56;2023016;80;20289;-78
2021/08/03 09:31:20;;;;;;;1.06;0.40;;;;;;;15.27;92.13;99079.69;2020201;78;25672;-78
2021/08/03 09:34:23;;;;;;;1.06;0.50;;;;;;;15.23;91.80;99083.25;2017287;80;20187;-78
2021/08/03 09:37:33;;;;;;;0.30;0.30;;;;;;;15.24;91.92;99083.22;2017054;80;20172;-77
2021/08/03 09:40:36;;;;;;;0.40;0.40;;;;;;;15.35;92.12;99075.06;2016714;80;20310;-76
2021/08/03 09:43:38;;;;;;;0.98;0.31;;;;;;;15.52;92.12;99077.19;2017396;80;20645;-77
2021/08/03 09:46:41;;;;;;;0.68;0.40;;;;;;;15.75;91.64;99085.25;2016507;78;30323;-78
2021/08/03 09:49:48;;;;;;;1.09;0.30;;;;;;;16.04;90.92;99078.25;2019986;80;20164;-79
2021/08/03 09:52:52;;;;;;;0.26;0.20;;;;;;;16.28;90.59;99075.69;2021776;80;20168;-81
2021/08/03 09:55:54;;;;;;;1.01;0.30;;;;;;;16.40;87.70;99074.44;2027137;80;20205;-81
2021/08/03 09:58:58;;;;;;;1.02;0.30;;;;;;;16.50;86.82;99078.47;2024053;80;20225;-80
2021/08/03 10:02:01;;;;;;;0.24;0.24;;;;;;;16.63;86.80;99076.28;2024016;77;23561;-80
2021/08/03 10:05:05;;;;;;;0.46;0.24;;;;;;;16.71;86.42;99073.47;2027187;80;20196;-79
2021/08/03 10:08:07;;;;;;;0.22;0.20;;;;;;;16.73;86.24;99067.25;2027523;80;20328;-80
2021/08/03 10:11:12;;;;;;;1.30;0.20;;;;;;;16.78;86.57;99057.44;2030423;80;20199;-80
2021/08/03 10:14:15;;;;;;;0.63;0.30;;;;;;;16.93;86.63;99048.19;2028463;80;20171;-80
2021/08/03 10:17:19;;;;;;;0.73;0.20;;;;;;;17.33;87.70;99038.88;2022137;77;89554;-78
2021/08/03 10:20:22;;;;;;;0.50;0.21;;;;;;;17.64;87.13;99043.81;2024101;80;20187;-79
2021/08/03 10:23:30;;;;;;;0.20;0.20;;;;;;;17.95;85.65;99040.84;2024615;80;20207;-80
2021/08/03 10:26:36;;;;;;;1.17;0.29;;;;;;;18.41;84.43;99048.56;2030454;80;20159;-82
2021/08/03 10:29:57;;;;;;;;;;;;;;;18.76;82.86;99042.78;2031946;80;20171;-83
2021/08/03 10:33:54;;;;;;;0.28;0.20;;;;;;;19.06;80.12;99049.34;2021100;79;957013;-80
2021/08/03 10:37:38;;;;;;;1.71;0.35;;;;;;;18.97;78.25;99047.09;2023528;80;20180;-77
2021/08/03 10:46:11;;;;;;;1.49;0.30;;;;;;;18.41;77.64;99032.81;2021124;80;20229;-79
2021/08/03 10:50:09;;;;;;;1.61;0.36;;;;;;;18.09;77.71;99017.50;2019296;80;20871;-79
2021/08/03 10:54:01;;;;;;;0.30;0.30;;;;;;;17.86;78.72;99026.31;2022597;80;20199;-79
2021/08/03 10:58:12;;;;;;;0.38;0.30;;;;;;;17.69;79.32;99021.72;2023864;80;20250;-77
2021/08/03 11:01:10;;;;;;;1.16;0.34;;;;;;;17.83;81.39;99021.19;2020609;80;20289;-80
2021/08/03 11:05:23;;;;;;;2.13;0.20;;;;;;;17.99;81.78;99016.19;2021384;80;20196;-80
2021/08/03 11:09:01;;;;;;;3.10;0.30;;;;;;;18.28;82.46;99031.59;2014465;80;20172;-79
2021/08/03 11:13:05;;;;;;;0.20;0.20;;;;;;;18.40;80.76;99025.84;2027644;80;20368;-80
2021/08/03 11:16:29;;;;;;;2.35;0.30;;;;;;;18.39;80.43;99023.28;2027294;80;20200;-81
2021/08/03 11:24:26;;;;;;;0.39;0.20;;;;;;;18.83;80.41;99008.22;2026975;69;20591;-81
2021/08/03 11:28:08;;;;;;;0.26;0.20;;;;;;;18.75;75.54;99007.72;2022185;80;20172;-81
2021/08/03 11:32:02;;;;;;;0.20;0.20;;;;;;;18.91;77.62;99011.41;2007965;80;1001318;-81
2021/08/03 11:35:31;;;;;;;1.09;0.20;;;;;;;19.05;76.04;99005.53;2021487;80;20498;-80
2021/08/03 11:39:27;;;;;;;0.35;0.10;;;;;;;19.15;75.70;98998.91;2020388;80;20650;-80
2021/08/03 11:42:58;;;;;;;1.19;0.25;;;;;;;19.41;75.52;98989.81;2025335;80;20163;-82
2021/08/03 11:46:06;;;;;;;1.30;0.24;;;;;;;19.78;75.03;98983.69;2022388;80;20172;-81
2021/08/03 11:49:54;;;;;;;0.20;0.20;;;;;;;20.05;74.62;98986.75;2023224;80;20189;-81
2021/08/03 11:53:52;;;;;;;0.31;0.20;;;;;;;20.64;74.17;98982.03;2023485;80;20205;-81
2021/08/03 11:57:23;;;;;;;0.20;0.20;;;;;;;20.99;71.94;98972.25;2021907;80;20678;-81
2021/08/03 12:01:10;;;;;;;0.54;0.20;;;;;;;21.09;68.63;98973.47;2019842;80;20655;-80
2021/08/03 12:05:10;;;;;;;0.71;0.30;;;;;;;21.54;69.44;98970.13;2020311;80;20280;-80
2021/08/03 12:08:43;;;;;;;1.30;0.30;;;;;;;21.78;68.07;98967.91;2019648;80;20345;-80
2021/08/03 12:12:10;;;;;;;0.45;0.20;;;;;;;21.86;67.14;98963.00;2020309;80;20372;-77
2021/08/03 12:16:03;;;;;;;0.47;0.24;;;;;;;22.06;65.82;98958.41;1999852;80;877913;-77
2021/08/03 12:20:03;;;;;;;;;;;;;;;;;;;;;
2021/08/03 12:36:24;;;;;;;0.26;0.26;;;;;;;22.23;63.74;98935.31;2009282;80;20213;-76
2021/08/03 12:40:23;;;;;;;0.28;0.17;;;;;;;22.44;63.46;98935.84;2010922;80;20197;-76
2021/08/03 12:44:33;;;;;;;0.21;0.20;;;;;;;22.24;63.10;98933.50;2019577;80;20225;-77
2021/08/03 12:47:40;;;;;;;0.21;0.20;;;;;;;22.25;63.09;98936.06;2021667;77;54028;-77
2021/08/03 12:50:54;;;;;;;0.28;0.20;;;;;;;22.63;63.71;98927.66;2023883;80;20187;-77
2021/08/03 12:54:22;;;;;;;0.65;0.10;;;;;;;23.00;61.23;98917.47;2023083;80;20163;-76
2021/08/03 12:58:10;;;;;;;0.20;0.20;;;;;;;23.28;61.05;98917.41;2023257;80;20318;-75
2021/08/03 13:01:58;;;;;;;0.20;0.20;;;;;;;22.95;59.17;98909.78;2020751;80;20281;-75
2021/08/03 13:05:43;;;;;;;0.57;0.20;;;;;;;23.06;56.56;98909.13;2021050;80;20179;-76
2021/08/03 13:17:01;;;;;;;0.10;0.10;;;;;;;23.17;55.28;98896.91;2015862;80;20339;-74
2021/08/03 13:20:47;;;;;;;0.30;0.30;;;;;;;22.83;55.84;98902.63;2017070;80;20271;-74
2021/08/03 13:28:03;;;;;;;0.28;0.20;;;;;;;23.34;59.28;98901.13;1999961;81;20190;-83
2021/08/03 13:31:05;;;;;;;0.29;0.20;;;;;;;23.93;56.74;98895.53;2013424;81;23376;-84
2021/08/03 13:34:09;;;;;;;0.63;0.20;;;;;;;23.97;55.46;98892.56;2006387;81;20232;-84
2021/08/03 13:37:12;;;;;;;0.30;0.30;;;;;;;23.77;56.10;98893.03;2011956;81;20218;-84
2021/08/03 13:40:15;;;;;;;0.20;0.20;;;;;;;23.27;55.82;98899.81;2009878;81;20238;-85
2021/08/03 13:43:17;;;;;;;0.66;0.36;;;;;;;22.70;57.00;98906.94;2006700;81;20187;-84
2021/08/03 13:46:20;;;;;;;0.20;0.20;;;;;;;22.15;59.88;98911.13;2003610;81;22044;-82
2021/08/03 13:49:23;;;;;;;2.10;0.20;;;;;;;21.75;60.46;98902.00;2002442;81;20207;-82
2021/08/03 13:52:26;;;;;;;2.16;0.30;;;;;;;21.30;61.79;98910.75;2009567;81;20200;-84
2021/08/03 13:55:29;;;;;;;1.84;0.30;;;;;;;20.88;63.47;98913.94;2008703;81;20183;-83
2021/08/03 13:58:31;;;;;;;0.30;0.30;;;;;;;20.50;64.94;98909.75;2001850;81;20195;-82
2021/08/03 14:01:34;;;;;;;0.31;0.30;;;;;;;20.22;67.65;98919.97;1995154;78;20226;-80
2021/08/03 14:04:37;;;;;;;0.56;0.40;;;;;;;19.76;68.46;98937.28;2010811;80;20218;-82
2021/08/03 14:07:39;;;;;;;0.75;0.40;;;;;;;19.31;71.30;98942.00;2027853;80;20133;-86
2021/08/03 14:10:43;;;;;;;3.20;0.40;;;;;;;19.08;72.88;98944.84;2016851;80;20186;-80
2021/08/03 14:13:45;;;;;;;0.79;0.34;;;;;;;18.86;74.55;98946.75;2019297;80;20260;-78
2021/08/03 14:16:48;;;;;;;0.61;0.31;;;;;;;18.71;75.41;98946.53;2019301;77;20243;-78
2021/08/03 14:19:51;;;;;;;0.32;0.30;;;;;;;18.57;75.92;98946.22;2025156;80;20474;-79
2021/08/03 14:22:53;;;;;;;0.94;0.34;;;;;;;18.50;76.54;98950.06;2025704;80;20576;-77
2021/08/03 14:25:56;;;;;;;0.47;0.30;;;;;;;18.40;76.81;98936.44;2026152;80;20286;-82
2021/08/03 14:28:59;;;;;;;0.65;0.30;;;;;;;18.41;78.38;98939.94;2031336;80;20171;-80
2021/08/03 14:32:02;;;;;;;1.11;0.40;;;;;;;18.38;78.68;98940.94;2027385;77;21901;-83
2021/08/03 14:35:05;;;;;;;1.26;0.30;;;;;;;18.40;79.48;98936.44;2028747;80;20205;-83
2021/08/03 14:38:08;;;;;;;0.45;0.40;;;;;;;18.49;80.89;98929.97;2033452;80;20185;-84
2021/08/03 14:41:10;;;;;;;0.60;0.38;;;;;;;18.56;81.02;98927.91;2031819;80;20147;-84
2021/08/03 14:44:13;;;;;;;0.74;0.46;;;;;;;18.58;82.03;98926.91;2037856;80;20241;-83
2021/08/03 14:47:15;;;;;;;0.51;0.40;;;;;;;18.55;82.13;98928.81;2033494;78;21141;-85
2021/08/03 14:50:19;;;;;;;0.95;0.40;;;;;;;18.46;81.40;98942.34;2031078;80;20170;-83
2021/08/03 14:53:21;;;;;;;0.30;0.30;;;;;;;18.31;81.14;98951.75;2032740;80;20161;-84
2021/08/03 14:56:24;;;;;;;1.00;0.57;;;;;;;18.17;81.57;98969.91;2033728;80;20117;-79
2021/08/03 14:59:27;;;;;;;0.69;0.49;;;;;;;18.00;82.20;98986.38;2026187;80;20192;-82
2021/08/03 15:02:29;;;;;;;4.94;0.60;;;;;;;17.88;83.13;98986.84;2027351;77;24704;-83
2021/08/03 15:05:33;;;;;;;1.38;0.50;;;;;;;17.81;83.82;98991.50;2054320;69;20186;-84
2021/08/03 15:08:38;;;;;;;1.64;0.40;;;;;;;17.64;83.91;98993.91;2040262;79;20153;-83
2021/08/03 15:11:41;;;;;;;0.81;0.39;;;;;;;17.48;83.69;99004.16;2040511;79;20227;-81
2021/08/03 15:14:46;;;;;;;0.82;0.38;;;;;;;17.34;83.32;98988.94;2029461;79;20166;-76
2021/08/03 15:17:48;;;;;;;1.20;0.38;;;;;;;17.12;82.62;98995.91;2028222;77;22319;-76
2021/08/03 15:20:51;;;;;;;0.69;0.25;;;;;;;17.01;83.02;98993.69;2028177;79;20199;-76
2021/08/03 15:23:54;;;;;;;1.44;0.30;;;;;;;16.94;83.41;98986.97;2028404;79;20204;-76
2021/08/03 15:26:56;;;;;;;0.22;0.22;;;;;;;16.88;83.47;98979.31;2028830;79;20275;-75